Nucla, Colorado
Current Conditions -  °F | °C
As of 10:55 AM on Friday 24 Oct 2014 (Local Time) from KAIB Reporting Station
Clear Clear  
Wind Chill: 57°   Ceiling: Unl
Heat Index: 57°   Visibility: 10mi
Dew Point: 30°   Wind: 0mph
Humidity: 36%   Direction: NA
Pressure: 30.41"   Gusts: NA
Location:  38.27°N, 108.55°W
Report Text: KAIB 241655Z AUTO 00000KT 10SM CLR 14/M01 A3041 RMK AO2
Loading
Personal Weather Stations






























Interactive Weather Map
Tropical Storm Tracking
New forecast layout! Learn more

10-Day Weather Forecast

Advertisements
Track Severe Weather on mobile